Biotrans — JWPN — position and weather

sailwx.info

Track history (hours):
 
Tides and Currents Weather Stations Pressure Air Temp Water Temp Dewpoint Dewpoint Depression Visibility Wind Speed Wind Dir Waves Ship Positions

Biotrans

Last reported at 2016-Aug-24 17:17 UTC. Time now 2016-Aug-25 04:33 UTC.
Position N 68°59' E 017°05'.

Length 55 m; draft 5.5 m.

Type: Cargo ship. MMSI: 259260000.

Date/timePositionNaut miles runAvg speedWind from/ knotsBaromVisibWave heightAir tempDewpointWater temp
2016-Aug-24 17:17N 68°59' E 017°05'9 8.9
2016-Aug-24 16:19N 69°04' E 017°23'3 4.1
2016-Aug-24 15:34N 69°05' E 017°31'2 2.2
2016-Aug-24 14:34N 69°07' E 017°33'0 0.4
2016-Aug-24 13:34N 69°07' E 017°32'0 0.4
2016-Aug-24 12:34N 69°07' E 017°32'0 0.1
2016-Aug-24 11:33N 69°07' E 017°32'3 3.2
2016-Aug-24 10:33N 69°09' E 017°39'0 0.3
2016-Aug-24 09:33N 69°09' E 017°39'8 8.2
2016-Aug-24 08:34N 69°13' E 017°59'  
2016-Aug-22 04:33N 69°17' E 017°58'8 7.6
2016-Aug-22 03:34N 69°10' E 017°55'10 9.5
2016-Aug-22 02:33N 69°06' E 017°31'  
2016-Aug-16 06:16N 68°44' E 016°42'77 7.7
2016-Aug-15 20:13N 67°43' E 014°31'7 7.7
2016-Aug-15 19:16N 67°36' E 014°31'6 8.6
2016-Aug-15 18:33N 67°30' E 014°29'9 9.2
2016-Aug-15 17:34N 67°21' E 014°23'10 9.5
2016-Aug-15 16:33N 67°13' E 014°09'9 9.4
2016-Aug-15 15:33N 67°05' E 013°56'9 9.4
2016-Aug-15 14:34N 66°60' E 013°37'11 8.8
2016-Aug-15 13:22N 66°52' E 013°20'22 9.4
2016-Aug-15 11:03N 66°32' E 012°58'610.1
2016-Aug-15 10:30N 66°26' E 012°59'73 9.1
2016-Aug-15 02:29N 65°17' E 011°58'9 9.4
2016-Aug-15 01:33N 65°09' E 011°50'9 9.4
2016-Aug-15 00:33N 65°01' E 011°41'9 9.2
2016-Aug-14 23:33N 64°55' E 011°24'9 9.0
2016-Aug-14 22:33N 64°49' E 011°08'  
Track history (hours):
 
Tides and Currents Weather Stations Pressure Air Temp Water Temp Dewpoint Dewpoint Depression Visibility Wind Speed Wind Dir Waves Ship Positions

Biotrans

Last reported at 2016-Aug-24 17:17 UTC. Time now 2016-Aug-25 04:33 UTC.
Position N 68°59' E 017°05'.

Length 55 m; draft 5.5 m.

Type: Cargo ship. MMSI: 259260000.

Date/timePositionNaut miles runAvg speedWind from/ knotsBaromVisibWave heightAir tempDewpointWater temp
2016-Aug-24 17:17N 68°59' E 017°05'9 8.9
2016-Aug-24 16:19N 69°04' E 017°23'3 4.1
2016-Aug-24 15:34N 69°05' E 017°31'2 2.2
2016-Aug-24 14:34N 69°07' E 017°33'0 0.4
2016-Aug-24 13:34N 69°07' E 017°32'0 0.4
2016-Aug-24 12:34N 69°07' E 017°32'0 0.1
2016-Aug-24 11:33N 69°07' E 017°32'3 3.2
2016-Aug-24 10:33N 69°09' E 017°39'0 0.3
2016-Aug-24 09:33N 69°09' E 017°39'8 8.2
2016-Aug-24 08:34N 69°13' E 017°59'  
2016-Aug-22 04:33N 69°17' E 017°58'8 7.6
2016-Aug-22 03:34N 69°10' E 017°55'10 9.5
2016-Aug-22 02:33N 69°06' E 017°31'  
2016-Aug-16 06:16N 68°44' E 016°42'77 7.7
2016-Aug-15 20:13N 67°43' E 014°31'7 7.7
2016-Aug-15 19:16N 67°36' E 014°31'6 8.6
2016-Aug-15 18:33N 67°30' E 014°29'9 9.2
2016-Aug-15 17:34N 67°21' E 014°23'10 9.5
2016-Aug-15 16:33N 67°13' E 014°09'9 9.4
2016-Aug-15 15:33N 67°05' E 013°56'9 9.4
2016-Aug-15 14:34N 66°60' E 013°37'11 8.8
2016-Aug-15 13:22N 66°52' E 013°20'22 9.4
2016-Aug-15 11:03N 66°32' E 012°58'610.1
2016-Aug-15 10:30N 66°26' E 012°59'73 9.1
2016-Aug-15 02:29N 65°17' E 011°58'9 9.4
2016-Aug-15 01:33N 65°09' E 011°50'9 9.4
2016-Aug-15 00:33N 65°01' E 011°41'9 9.2
2016-Aug-14 23:33N 64°55' E 011°24'9 9.0
2016-Aug-14 22:33N 64°49' E 011°08'  

Dump ship's entire track history